sensor_id;sensor_type;location;lat;lon;timestamp;P1;durP1;ratioP1;P2;durP2;ratioP2
12968;SDS011;6549;53.128;8.182;2023-11-21T00:00:38;10.90;;;5.57;;
12968;SDS011;6549;53.128;8.182;2023-11-21T00:03:38;9.13;;;5.20;;
12968;SDS011;6549;53.128;8.182;2023-11-21T00:06:39;8.60;;;4.78;;
12968;SDS011;6549;53.128;8.182;2023-11-21T00:09:41;9.77;;;5.37;;
12968;SDS011;6549;53.128;8.182;2023-11-21T00:12:41;9.00;;;5.07;;
12968;SDS011;6549;53.128;8.182;2023-11-21T00:15:42;7.78;;;4.53;;
12968;SDS011;6549;53.128;8.182;2023-11-21T00:18:42;8.73;;;4.60;;
12968;SDS011;6549;53.128;8.182;2023-11-21T00:21:43;11.57;;;6.03;;
12968;SDS011;6549;53.128;8.182;2023-11-21T00:24:44;8.63;;;4.82;;
12968;SDS011;6549;53.128;8.182;2023-11-21T00:27:45;9.43;;;5.05;;
12968;SDS011;6549;53.128;8.182;2023-11-21T00:30:45;11.13;;;5.03;;
12968;SDS011;6549;53.128;8.182;2023-11-21T00:33:46;9.23;;;5.32;;
12968;SDS011;6549;53.128;8.182;2023-11-21T00:36:46;9.80;;;5.93;;
12968;SDS011;6549;53.128;8.182;2023-11-21T00:39:46;9.57;;;5.38;;
12968;SDS011;6549;53.128;8.182;2023-11-21T00:42:47;13.65;;;5.75;;
12968;SDS011;6549;53.128;8.182;2023-11-21T00:45:47;8.30;;;4.85;;
12968;SDS011;6549;53.128;8.182;2023-11-21T00:48:49;12.27;;;6.05;;
12968;SDS011;6549;53.128;8.182;2023-11-21T00:51:49;12.02;;;6.07;;
12968;SDS011;6549;53.128;8.182;2023-11-21T00:54:49;11.55;;;6.15;;
12968;SDS011;6549;53.128;8.182;2023-11-21T00:57:50;12.60;;;6.00;;
12968;SDS011;6549;53.128;8.182;2023-11-21T01:00:50;9.13;;;5.43;;
12968;SDS011;6549;53.128;8.182;2023-11-21T01:03:50;10.25;;;5.70;;
12968;SDS011;6549;53.128;8.182;2023-11-21T01:06:51;13.63;;;5.95;;
12968;SDS011;6549;53.128;8.182;2023-11-21T01:09:51;11.13;;;5.85;;
12968;SDS011;6549;53.128;8.182;2023-11-21T01:12:51;11.00;;;6.38;;
12968;SDS011;6549;53.128;8.182;2023-11-21T01:15:52;11.40;;;5.55;;
12968;SDS011;6549;53.128;8.182;2023-11-21T01:18:52;12.88;;;5.93;;
12968;SDS011;6549;53.128;8.182;2023-11-21T01:21:52;10.45;;;5.70;;
12968;SDS011;6549;53.128;8.182;2023-11-21T01:24:53;10.70;;;5.90;;
12968;SDS011;6549;53.128;8.182;2023-11-21T01:27:53;9.57;;;5.40;;
12968;SDS011;6549;53.128;8.182;2023-11-21T01:30:53;12.05;;;6.43;;
12968;SDS011;6549;53.128;8.182;2023-11-21T01:33:56;13.32;;;6.88;;
12968;SDS011;6549;53.128;8.182;2023-11-21T01:36:56;18.05;;;8.35;;
12968;SDS011;6549;53.128;8.182;2023-11-21T01:39:57;13.02;;;8.02;;
12968;SDS011;6549;53.128;8.182;2023-11-21T01:42:58;14.77;;;7.67;;
12968;SDS011;6549;53.128;8.182;2023-11-21T01:45:59;13.85;;;7.40;;
12968;SDS011;6549;53.128;8.182;2023-11-21T01:49:00;12.35;;;6.80;;
12968;SDS011;6549;53.128;8.182;2023-11-21T01:52:00;11.30;;;6.78;;
12968;SDS011;6549;53.128;8.182;2023-11-21T01:55:02;11.10;;;6.47;;
12968;SDS011;6549;53.128;8.182;2023-11-21T01:58:04;9.90;;;6.10;;
12968;SDS011;6549;53.128;8.182;2023-11-21T02:01:04;10.02;;;5.90;;
12968;SDS011;6549;53.128;8.182;2023-11-21T02:04:05;10.20;;;5.90;;
12968;SDS011;6549;53.128;8.182;2023-11-21T02:07:08;10.18;;;6.10;;
12968;SDS011;6549;53.128;8.182;2023-11-21T02:10:08;9.77;;;5.75;;
12968;SDS011;6549;53.128;8.182;2023-11-21T02:13:09;9.45;;;5.22;;
12968;SDS011;6549;53.128;8.182;2023-11-21T02:16:10;10.43;;;5.93;;
12968;SDS011;6549;53.128;8.182;2023-11-21T02:19:12;9.77;;;5.90;;
12968;SDS011;6549;53.128;8.182;2023-11-21T02:22:30;10.40;;;6.63;;
12968;SDS011;6549;53.128;8.182;2023-11-21T02:25:35;10.15;;;6.43;;
12968;SDS011;6549;53.128;8.182;2023-11-21T02:28:37;13.52;;;7.68;;
12968;SDS011;6549;53.128;8.182;2023-11-21T02:31:38;9.35;;;6.95;;
12968;SDS011;6549;53.128;8.182;2023-11-21T02:34:47;9.90;;;6.28;;
12968;SDS011;6549;53.128;8.182;2023-11-21T02:37:48;9.45;;;6.63;;
12968;SDS011;6549;53.128;8.182;2023-11-21T02:40:49;11.48;;;6.85;;
12968;SDS011;6549;53.128;8.182;2023-11-21T02:43:49;9.82;;;6.30;;
12968;SDS011;6549;53.128;8.182;2023-11-21T02:46:49;9.95;;;6.43;;
12968;SDS011;6549;53.128;8.182;2023-11-21T02:49:50;10.98;;;6.50;;
12968;SDS011;6549;53.128;8.182;2023-11-21T02:52:52;11.98;;;6.55;;
12968;SDS011;6549;53.128;8.182;2023-11-21T02:55:52;12.65;;;7.95;;
12968;SDS011;6549;53.128;8.182;2023-11-21T02:58:55;9.75;;;6.20;;
12968;SDS011;6549;53.128;8.182;2023-11-21T03:01:55;12.23;;;6.90;;
12968;SDS011;6549;53.128;8.182;2023-11-21T03:04:56;10.75;;;7.18;;
12968;SDS011;6549;53.128;8.182;2023-11-21T03:07:57;10.57;;;6.50;;
12968;SDS011;6549;53.128;8.182;2023-11-21T03:10:57;12.82;;;7.10;;
12968;SDS011;6549;53.128;8.182;2023-11-21T03:13:58;8.80;;;5.57;;
12968;SDS011;6549;53.128;8.182;2023-11-21T03:16:58;10.63;;;5.95;;
12968;SDS011;6549;53.128;8.182;2023-11-21T03:19:59;9.98;;;5.70;;
12968;SDS011;6549;53.128;8.182;2023-11-21T03:22:59;8.50;;;5.38;;
12968;SDS011;6549;53.128;8.182;2023-11-21T03:26:00;9.80;;;5.90;;
12968;SDS011;6549;53.128;8.182;2023-11-21T03:29:00;11.48;;;6.57;;
12968;SDS011;6549;53.128;8.182;2023-11-21T03:32:00;8.77;;;5.30;;
12968;SDS011;6549;53.128;8.182;2023-11-21T03:35:02;11.40;;;6.22;;
12968;SDS011;6549;53.128;8.182;2023-11-21T03:38:03;9.50;;;5.75;;
12968;SDS011;6549;53.128;8.182;2023-11-21T03:41:04;10.50;;;6.80;;
12968;SDS011;6549;53.128;8.182;2023-11-21T03:44:05;8.88;;;6.13;;
12968;SDS011;6549;53.128;8.182;2023-11-21T03:47:05;11.10;;;6.55;;
12968;SDS011;6549;53.128;8.182;2023-11-21T03:50:05;12.43;;;6.20;;
12968;SDS011;6549;53.128;8.182;2023-11-21T03:53:06;14.40;;;8.48;;
12968;SDS011;6549;53.128;8.182;2023-11-21T03:56:07;15.38;;;8.20;;
12968;SDS011;6549;53.128;8.182;2023-11-21T03:59:07;15.30;;;8.13;;
12968;SDS011;6549;53.128;8.182;2023-11-21T04:02:08;14.20;;;8.10;;
12968;SDS011;6549;53.128;8.182;2023-11-21T04:05:08;15.95;;;7.93;;
12968;SDS011;6549;53.128;8.182;2023-11-21T04:08:09;15.43;;;8.57;;
12968;SDS011;6549;53.128;8.182;2023-11-21T04:11:09;19.75;;;9.65;;
12968;SDS011;6549;53.128;8.182;2023-11-21T04:14:11;18.13;;;9.93;;
12968;SDS011;6549;53.128;8.182;2023-11-21T04:17:13;23.27;;;10.40;;
12968;SDS011;6549;53.128;8.182;2023-11-21T04:20:13;22.92;;;10.82;;
12968;SDS011;6549;53.128;8.182;2023-11-21T04:23:14;18.83;;;9.48;;
12968;SDS011;6549;53.128;8.182;2023-11-21T04:26:15;22.88;;;11.48;;
12968;SDS011;6549;53.128;8.182;2023-11-21T04:29:15;26.17;;;13.25;;
12968;SDS011;6549;53.128;8.182;2023-11-21T04:32:15;31.67;;;13.55;;
12968;SDS011;6549;53.128;8.182;2023-11-21T04:35:16;26.70;;;12.57;;
12968;SDS011;6549;53.128;8.182;2023-11-21T04:38:16;24.98;;;13.50;;
12968;SDS011;6549;53.128;8.182;2023-11-21T04:41:17;31.63;;;14.35;;
12968;SDS011;6549;53.128;8.182;2023-11-21T04:44:18;27.77;;;14.02;;
12968;SDS011;6549;53.128;8.182;2023-11-21T04:47:18;29.42;;;14.90;;
12968;SDS011;6549;53.128;8.182;2023-11-21T04:50:19;33.33;;;16.38;;
12968;SDS011;6549;53.128;8.182;2023-11-21T04:53:20;27.67;;;14.85;;
12968;SDS011;6549;53.128;8.182;2023-11-21T04:56:20;31.00;;;15.82;;
12968;SDS011;6549;53.128;8.182;2023-11-21T04:59:20;34.90;;;16.95;;
12968;SDS011;6549;53.128;8.182;2023-11-21T05:02:24;28.73;;;14.40;;
12968;SDS011;6549;53.128;8.182;2023-11-21T05:05:24;23.50;;;13.23;;
12968;SDS011;6549;53.128;8.182;2023-11-21T05:08:25;28.83;;;15.60;;
12968;SDS011;6549;53.128;8.182;2023-11-21T05:11:26;29.10;;;14.88;;
12968;SDS011;6549;53.128;8.182;2023-11-21T05:14:27;27.92;;;16.42;;
12968;SDS011;6549;53.128;8.182;2023-11-21T05:17:27;22.98;;;13.45;;
12968;SDS011;6549;53.128;8.182;2023-11-21T05:20:28;29.33;;;15.73;;
12968;SDS011;6549;53.128;8.182;2023-11-21T05:23:28;26.98;;;14.65;;
12968;SDS011;6549;53.128;8.182;2023-11-21T05:26:28;29.75;;;15.00;;
12968;SDS011;6549;53.128;8.182;2023-11-21T05:29:28;27.83;;;14.40;;
12968;SDS011;6549;53.128;8.182;2023-11-21T05:32:29;23.80;;;13.60;;
12968;SDS011;6549;53.128;8.182;2023-11-21T05:35:29;26.50;;;14.68;;
12968;SDS011;6549;53.128;8.182;2023-11-21T05:38:29;28.63;;;15.50;;
12968;SDS011;6549;53.128;8.182;2023-11-21T05:41:30;23.10;;;13.07;;
12968;SDS011;6549;53.128;8.182;2023-11-21T05:44:30;21.17;;;12.38;;
12968;SDS011;6549;53.128;8.182;2023-11-21T05:47:30;22.10;;;11.82;;
12968;SDS011;6549;53.128;8.182;2023-11-21T05:50:31;23.30;;;13.80;;
12968;SDS011;6549;53.128;8.182;2023-11-21T05:53:32;23.45;;;11.77;;
12968;SDS011;6549;53.128;8.182;2023-11-21T05:56:32;22.38;;;12.27;;
12968;SDS011;6549;53.128;8.182;2023-11-21T05:59:33;26.75;;;14.25;;
12968;SDS011;6549;53.128;8.182;2023-11-21T06:02:33;25.73;;;13.73;;
12968;SDS011;6549;53.128;8.182;2023-11-21T06:05:33;26.05;;;12.77;;
12968;SDS011;6549;53.128;8.182;2023-11-21T06:08:34;24.40;;;13.82;;
12968;SDS011;6549;53.128;8.182;2023-11-21T06:11:34;23.88;;;13.75;;
12968;SDS011;6549;53.128;8.182;2023-11-21T06:14:35;20.90;;;12.02;;
12968;SDS011;6549;53.128;8.182;2023-11-21T06:17:36;23.10;;;12.48;;
12968;SDS011;6549;53.128;8.182;2023-11-21T06:20:37;21.67;;;11.57;;
12968;SDS011;6549;53.128;8.182;2023-11-21T06:23:37;22.02;;;12.80;;
12968;SDS011;6549;53.128;8.182;2023-11-21T06:26:38;23.63;;;12.95;;
12968;SDS011;6549;53.128;8.182;2023-11-21T06:29:38;23.20;;;12.95;;
12968;SDS011;6549;53.128;8.182;2023-11-21T06:32:39;26.63;;;14.18;;
12968;SDS011;6549;53.128;8.182;2023-11-21T06:35:39;25.40;;;13.98;;
12968;SDS011;6549;53.128;8.182;2023-11-21T06:38:40;25.80;;;14.32;;
12968;SDS011;6549;53.128;8.182;2023-11-21T06:41:40;22.27;;;12.77;;
12968;SDS011;6549;53.128;8.182;2023-11-21T06:44:40;21.25;;;12.60;;
12968;SDS011;6549;53.128;8.182;2023-11-21T06:47:41;20.23;;;12.27;;
12968;SDS011;6549;53.128;8.182;2023-11-21T06:50:41;20.50;;;11.85;;
12968;SDS011;6549;53.128;8.182;2023-11-21T06:53:42;18.95;;;11.68;;
12968;SDS011;6549;53.128;8.182;2023-11-21T06:56:42;17.38;;;9.95;;
12968;SDS011;6549;53.128;8.182;2023-11-21T06:59:42;17.25;;;9.93;;
12968;SDS011;6549;53.128;8.182;2023-11-21T07:02:43;14.23;;;8.68;;
12968;SDS011;6549;53.128;8.182;2023-11-21T07:05:43;15.13;;;9.77;;
12968;SDS011;6549;53.128;8.182;2023-11-21T07:08:44;11.90;;;8.48;;
12968;SDS011;6549;53.128;8.182;2023-11-21T07:11:44;14.10;;;8.23;;
12968;SDS011;6549;53.128;8.182;2023-11-21T07:14:44;12.48;;;8.02;;
12968;SDS011;6549;53.128;8.182;2023-11-21T07:17:45;11.73;;;8.13;;
12968;SDS011;6549;53.128;8.182;2023-11-21T07:20:46;10.57;;;6.75;;
12968;SDS011;6549;53.128;8.182;2023-11-21T07:23:47;10.07;;;6.95;;
12968;SDS011;6549;53.128;8.182;2023-11-21T07:26:47;13.13;;;8.23;;
12968;SDS011;6549;53.128;8.182;2023-11-21T07:29:48;13.65;;;7.93;;
12968;SDS011;6549;53.128;8.182;2023-11-21T07:32:48;12.52;;;8.25;;
12968;SDS011;6549;53.128;8.182;2023-11-21T07:35:49;12.25;;;8.10;;
12968;SDS011;6549;53.128;8.182;2023-11-21T07:38:49;12.25;;;7.88;;
12968;SDS011;6549;53.128;8.182;2023-11-21T07:41:50;11.52;;;7.65;;
12968;SDS011;6549;53.128;8.182;2023-11-21T07:44:50;13.60;;;8.27;;
12968;SDS011;6549;53.128;8.182;2023-11-21T07:47:52;12.88;;;7.50;;
12968;SDS011;6549;53.128;8.182;2023-11-21T07:50:52;13.60;;;8.43;;
12968;SDS011;6549;53.128;8.182;2023-11-21T07:53:52;12.95;;;8.30;;
12968;SDS011;6549;53.128;8.182;2023-11-21T07:56:53;12.23;;;8.38;;
12968;SDS011;6549;53.128;8.182;2023-11-21T07:59:53;12.95;;;8.00;;
12968;SDS011;6549;53.128;8.182;2023-11-21T08:02:55;12.27;;;7.63;;
12968;SDS011;6549;53.128;8.182;2023-11-21T08:05:58;11.43;;;7.25;;
12968;SDS011;6549;53.128;8.182;2023-11-21T08:08:59;13.38;;;7.88;;
12968;SDS011;6549;53.128;8.182;2023-11-21T08:12:00;13.10;;;7.63;;
12968;SDS011;6549;53.128;8.182;2023-11-21T08:15:02;12.20;;;7.30;;
12968;SDS011;6549;53.128;8.182;2023-11-21T08:18:03;13.35;;;7.80;;
12968;SDS011;6549;53.128;8.182;2023-11-21T08:21:03;13.70;;;7.95;;
12968;SDS011;6549;53.128;8.182;2023-11-21T08:24:08;10.45;;;6.82;;
12968;SDS011;6549;53.128;8.182;2023-11-21T08:27:10;11.38;;;7.45;;
12968;SDS011;6549;53.128;8.182;2023-11-21T08:30:11;14.20;;;8.30;;
12968;SDS011;6549;53.128;8.182;2023-11-21T08:33:12;12.43;;;8.20;;
12968;SDS011;6549;53.128;8.182;2023-11-21T08:36:13;14.52;;;8.98;;
12968;SDS011;6549;53.128;8.182;2023-11-21T08:39:13;14.05;;;8.93;;
12968;SDS011;6549;53.128;8.182;2023-11-21T08:42:16;14.27;;;9.23;;
12968;SDS011;6549;53.128;8.182;2023-11-21T08:45:16;14.45;;;9.88;;
12968;SDS011;6549;53.128;8.182;2023-11-21T08:48:17;11.35;;;7.75;;
12968;SDS011;6549;53.128;8.182;2023-11-21T08:51:17;14.65;;;9.40;;
12968;SDS011;6549;53.128;8.182;2023-11-21T08:54:18;13.15;;;8.23;;
12968;SDS011;6549;53.128;8.182;2023-11-21T08:57:18;13.77;;;8.43;;
12968;SDS011;6549;53.128;8.182;2023-11-21T09:00:18;11.32;;;7.82;;
12968;SDS011;6549;53.128;8.182;2023-11-21T09:03:19;12.77;;;8.65;;
12968;SDS011;6549;53.128;8.182;2023-11-21T09:06:19;13.35;;;8.73;;
12968;SDS011;6549;53.128;8.182;2023-11-21T09:09:19;13.05;;;8.07;;
12968;SDS011;6549;53.128;8.182;2023-11-21T09:12:20;12.63;;;8.25;;
12968;SDS011;6549;53.128;8.182;2023-11-21T09:15:20;13.50;;;9.23;;
12968;SDS011;6549;53.128;8.182;2023-11-21T09:18:21;13.85;;;8.95;;
12968;SDS011;6549;53.128;8.182;2023-11-21T09:21:21;12.82;;;8.18;;
12968;SDS011;6549;53.128;8.182;2023-11-21T09:24:22;13.50;;;8.57;;
12968;SDS011;6549;53.128;8.182;2023-11-21T09:27:22;12.95;;;8.20;;
12968;SDS011;6549;53.128;8.182;2023-11-21T09:30:22;13.95;;;9.50;;
12968;SDS011;6549;53.128;8.182;2023-11-21T09:33:24;13.02;;;8.15;;
12968;SDS011;6549;53.128;8.182;2023-11-21T09:36:25;12.48;;;8.65;;
12968;SDS011;6549;53.128;8.182;2023-11-21T09:39:27;13.38;;;8.57;;
12968;SDS011;6549;53.128;8.182;2023-11-21T09:42:48;16.30;;;9.18;;
12968;SDS011;6549;53.128;8.182;2023-11-21T09:45:54;14.32;;;8.43;;
12968;SDS011;6549;53.128;8.182;2023-11-21T09:48:59;13.50;;;8.50;;
12968;SDS011;6549;53.128;8.182;2023-11-21T09:52:01;14.05;;;8.30;;
12968;SDS011;6549;53.128;8.182;2023-11-21T09:55:03;13.37;;;8.77;;
12968;SDS011;6549;53.128;8.182;2023-11-21T09:58:05;13.13;;;8.75;;
12968;SDS011;6549;53.128;8.182;2023-11-21T10:01:11;12.57;;;8.13;;
12968;SDS011;6549;53.128;8.182;2023-11-21T10:07:16;11.90;;;7.63;;
12968;SDS011;6549;53.128;8.182;2023-11-21T10:10:19;11.23;;;7.05;;
12968;SDS011;6549;53.128;8.182;2023-11-21T10:13:21;13.73;;;8.90;;
12968;SDS011;6549;53.128;8.182;2023-11-21T10:16:21;12.18;;;8.57;;
12968;SDS011;6549;53.128;8.182;2023-11-21T10:19:25;13.57;;;8.25;;
12968;SDS011;6549;53.128;8.182;2023-11-21T10:22:27;11.68;;;7.72;;
12968;SDS011;6549;53.128;8.182;2023-11-21T10:25:29;12.90;;;8.43;;
12968;SDS011;6549;53.128;8.182;2023-11-21T10:28:29;11.27;;;7.60;;
12968;SDS011;6549;53.128;8.182;2023-11-21T10:31:30;12.63;;;8.35;;
12968;SDS011;6549;53.128;8.182;2023-11-21T10:34:31;11.75;;;7.80;;
12968;SDS011;6549;53.128;8.182;2023-11-21T10:37:33;12.52;;;7.90;;
12968;SDS011;6549;53.128;8.182;2023-11-21T10:40:33;13.15;;;7.45;;
12968;SDS011;6549;53.128;8.182;2023-11-21T10:43:34;12.77;;;7.78;;
12968;SDS011;6549;53.128;8.182;2023-11-21T10:46:34;12.50;;;8.05;;
12968;SDS011;6549;53.128;8.182;2023-11-21T10:49:35;13.20;;;7.97;;
12968;SDS011;6549;53.128;8.182;2023-11-21T10:52:37;12.35;;;7.88;;
12968;SDS011;6549;53.128;8.182;2023-11-21T10:55:39;11.15;;;7.65;;
12968;SDS011;6549;53.128;8.182;2023-11-21T10:58:40;10.25;;;6.63;;
12968;SDS011;6549;53.128;8.182;2023-11-21T11:01:42;10.98;;;7.13;;
12968;SDS011;6549;53.128;8.182;2023-11-21T11:04:44;12.70;;;8.40;;
12968;SDS011;6549;53.128;8.182;2023-11-21T11:07:45;12.43;;;8.55;;
12968;SDS011;6549;53.128;8.182;2023-11-21T11:10:50;13.27;;;8.07;;
12968;SDS011;6549;53.128;8.182;2023-11-21T11:13:51;12.40;;;8.25;;
12968;SDS011;6549;53.128;8.182;2023-11-21T11:16:53;13.20;;;8.50;;
12968;SDS011;6549;53.128;8.182;2023-11-21T11:19:59;10.63;;;7.75;;
12968;SDS011;6549;53.128;8.182;2023-11-21T11:29:46;13.50;;;7.43;;
12968;SDS011;6549;53.128;8.182;2023-11-21T11:36:03;11.90;;;8.13;;
12968;SDS011;6549;53.128;8.182;2023-11-21T11:39:26;12.55;;;7.88;;
12968;SDS011;6549;53.128;8.182;2023-11-21T11:42:34;11.63;;;7.50;;
12968;SDS011;6549;53.128;8.182;2023-11-21T11:45:35;10.25;;;7.15;;
12968;SDS011;6549;53.128;8.182;2023-11-21T11:48:37;10.05;;;6.93;;
12968;SDS011;6549;53.128;8.182;2023-11-21T11:51:39;12.05;;;6.78;;
12968;SDS011;6549;53.128;8.182;2023-11-21T11:54:40;11.70;;;7.68;;
12968;SDS011;6549;53.128;8.182;2023-11-21T11:57:40;9.63;;;6.70;;
12968;SDS011;6549;53.128;8.182;2023-11-21T12:00:42;9.57;;;6.15;;
12968;SDS011;6549;53.128;8.182;2023-11-21T12:03:43;8.75;;;6.38;;
12968;SDS011;6549;53.128;8.182;2023-11-21T12:06:43;10.05;;;6.72;;
12968;SDS011;6549;53.128;8.182;2023-11-21T12:09:44;10.18;;;6.53;;
12968;SDS011;6549;53.128;8.182;2023-11-21T12:12:46;11.38;;;6.65;;
12968;SDS011;6549;53.128;8.182;2023-11-21T12:15:48;9.25;;;6.00;;
12968;SDS011;6549;53.128;8.182;2023-11-21T12:18:49;8.82;;;6.03;;
12968;SDS011;6549;53.128;8.182;2023-11-21T12:21:49;9.30;;;6.38;;
12968;SDS011;6549;53.128;8.182;2023-11-21T12:24:50;9.73;;;6.43;;
12968;SDS011;6549;53.128;8.182;2023-11-21T12:27:51;10.32;;;5.93;;
12968;SDS011;6549;53.128;8.182;2023-11-21T12:30:52;9.13;;;5.47;;
12968;SDS011;6549;53.128;8.182;2023-11-21T12:33:52;8.02;;;5.10;;
12968;SDS011;6549;53.128;8.182;2023-11-21T12:36:53;6.38;;;4.20;;
12968;SDS011;6549;53.128;8.182;2023-11-21T12:39:54;6.65;;;4.07;;
12968;SDS011;6549;53.128;8.182;2023-11-21T12:42:58;7.90;;;3.85;;
12968;SDS011;6549;53.128;8.182;2023-11-21T12:46:04;6.70;;;3.60;;
12968;SDS011;6549;53.128;8.182;2023-11-21T12:49:10;5.13;;;3.10;;
12968;SDS011;6549;53.128;8.182;2023-11-21T12:52:17;4.30;;;2.88;;
12968;SDS011;6549;53.128;8.182;2023-11-21T12:55:18;4.78;;;3.10;;
12968;SDS011;6549;53.128;8.182;2023-11-21T12:58:22;5.50;;;3.15;;
12968;SDS011;6549;53.128;8.182;2023-11-21T13:01:25;5.50;;;3.40;;
12968;SDS011;6549;53.128;8.182;2023-11-21T13:04:31;5.85;;;3.50;;
12968;SDS011;6549;53.128;8.182;2023-11-21T13:07:41;5.43;;;3.40;;
12968;SDS011;6549;53.128;8.182;2023-11-21T13:10:48;6.13;;;3.63;;
12968;SDS011;6549;53.128;8.182;2023-11-21T13:13:55;5.68;;;3.63;;
12968;SDS011;6549;53.128;8.182;2023-11-21T13:16:56;8.23;;;4.10;;
12968;SDS011;6549;53.128;8.182;2023-11-21T13:19:57;7.78;;;4.13;;
12968;SDS011;6549;53.128;8.182;2023-11-21T13:22:58;8.07;;;4.20;;
12968;SDS011;6549;53.128;8.182;2023-11-21T13:25:59;6.13;;;3.60;;
12968;SDS011;6549;53.128;8.182;2023-11-21T13:29:03;7.80;;;4.30;;
12968;SDS011;6549;53.128;8.182;2023-11-21T13:32:05;6.60;;;3.95;;
12968;SDS011;6549;53.128;8.182;2023-11-21T13:35:06;7.45;;;4.50;;
12968;SDS011;6549;53.128;8.182;2023-11-21T13:38:15;8.02;;;4.38;;
12968;SDS011;6549;53.128;8.182;2023-11-21T13:41:22;6.97;;;3.97;;
12968;SDS011;6549;53.128;8.182;2023-11-21T13:44:30;9.85;;;4.90;;
12968;SDS011;6549;53.128;8.182;2023-11-21T13:47:38;7.47;;;4.60;;
12968;SDS011;6549;53.128;8.182;2023-11-21T13:50:40;7.68;;;4.65;;
12968;SDS011;6549;53.128;8.182;2023-11-21T13:53:48;8.05;;;4.20;;
12968;SDS011;6549;53.128;8.182;2023-11-21T13:56:50;6.90;;;4.45;;
12968;SDS011;6549;53.128;8.182;2023-11-21T13:59:51;7.18;;;4.60;;
12968;SDS011;6549;53.128;8.182;2023-11-21T14:02:51;7.22;;;4.43;;
12968;SDS011;6549;53.128;8.182;2023-11-21T14:05:52;9.15;;;4.28;;
12968;SDS011;6549;53.128;8.182;2023-11-21T14:08:52;7.28;;;3.97;;
12968;SDS011;6549;53.128;8.182;2023-11-21T14:14:57;6.20;;;3.70;;
12968;SDS011;6549;53.128;8.182;2023-11-21T14:17:58;8.70;;;4.90;;
12968;SDS011;6549;53.128;8.182;2023-11-21T14:21:02;7.28;;;4.15;;
12968;SDS011;6549;53.128;8.182;2023-11-21T14:24:02;7.15;;;4.32;;
12968;SDS011;6549;53.128;8.182;2023-11-21T14:27:07;7.03;;;4.20;;
12968;SDS011;6549;53.128;8.182;2023-11-21T14:30:08;7.63;;;5.07;;
12968;SDS011;6549;53.128;8.182;2023-11-21T14:33:12;6.40;;;4.07;;
12968;SDS011;6549;53.128;8.182;2023-11-21T14:36:13;6.47;;;3.80;;
12968;SDS011;6549;53.128;8.182;2023-11-21T14:39:13;6.18;;;4.05;;
12968;SDS011;6549;53.128;8.182;2023-11-21T14:42:23;6.95;;;4.28;;
12968;SDS011;6549;53.128;8.182;2023-11-21T14:45:26;7.60;;;4.90;;
12968;SDS011;6549;53.128;8.182;2023-11-21T14:48:29;7.95;;;4.57;;
12968;SDS011;6549;53.128;8.182;2023-11-21T14:51:48;6.82;;;4.43;;
12968;SDS011;6549;53.128;8.182;2023-11-21T14:55:19;7.90;;;4.85;;
12968;SDS011;6549;53.128;8.182;2023-11-21T14:58:46;8.75;;;5.38;;
12968;SDS011;6549;53.128;8.182;2023-11-21T15:01:46;8.02;;;5.00;;
12968;SDS011;6549;53.128;8.182;2023-11-21T15:04:55;9.75;;;5.55;;
12968;SDS011;6549;53.128;8.182;2023-11-21T15:08:02;10.50;;;6.30;;
12968;SDS011;6549;53.128;8.182;2023-11-21T15:11:17;14.15;;;7.78;;
12968;SDS011;6549;53.128;8.182;2023-11-21T15:14:17;14.32;;;7.72;;
12968;SDS011;6549;53.128;8.182;2023-11-21T15:17:23;18.17;;;8.60;;
12968;SDS011;6549;53.128;8.182;2023-11-21T15:20:27;21.10;;;9.73;;
12968;SDS011;6549;53.128;8.182;2023-11-21T15:23:27;17.67;;;9.45;;
12968;SDS011;6549;53.128;8.182;2023-11-21T15:26:29;17.35;;;9.40;;
12968;SDS011;6549;53.128;8.182;2023-11-21T15:29:29;14.15;;;7.57;;
12968;SDS011;6549;53.128;8.182;2023-11-21T15:32:30;13.02;;;8.10;;
12968;SDS011;6549;53.128;8.182;2023-11-21T15:35:30;13.07;;;7.35;;
12968;SDS011;6549;53.128;8.182;2023-11-21T15:38:32;11.43;;;7.25;;
12968;SDS011;6549;53.128;8.182;2023-11-21T15:41:32;10.00;;;5.72;;
12968;SDS011;6549;53.128;8.182;2023-11-21T15:44:33;8.18;;;5.70;;
12968;SDS011;6549;53.128;8.182;2023-11-21T15:47:34;8.55;;;5.68;;
12968;SDS011;6549;53.128;8.182;2023-11-21T15:50:35;7.72;;;5.50;;
12968;SDS011;6549;53.128;8.182;2023-11-21T15:53:36;8.00;;;5.40;;
12968;SDS011;6549;53.128;8.182;2023-11-21T15:56:37;7.25;;;5.00;;
12968;SDS011;6549;53.128;8.182;2023-11-21T15:59:39;7.72;;;5.63;;
12968;SDS011;6549;53.128;8.182;2023-11-21T16:02:42;9.43;;;6.13;;
12968;SDS011;6549;53.128;8.182;2023-11-21T16:05:43;8.85;;;5.68;;
12968;SDS011;6549;53.128;8.182;2023-11-21T16:08:43;9.00;;;5.40;;
12968;SDS011;6549;53.128;8.182;2023-11-21T16:11:44;7.68;;;5.22;;
12968;SDS011;6549;53.128;8.182;2023-11-21T16:14:44;8.68;;;5.63;;
12968;SDS011;6549;53.128;8.182;2023-11-21T16:17:46;7.82;;;5.00;;
12968;SDS011;6549;53.128;8.182;2023-11-21T16:20:47;8.52;;;5.57;;
12968;SDS011;6549;53.128;8.182;2023-11-21T16:23:48;7.50;;;4.80;;
12968;SDS011;6549;53.128;8.182;2023-11-21T16:26:49;6.68;;;4.57;;
12968;SDS011;6549;53.128;8.182;2023-11-21T16:29:49;7.05;;;4.57;;
12968;SDS011;6549;53.128;8.182;2023-11-21T16:32:49;6.97;;;4.65;;
12968;SDS011;6549;53.128;8.182;2023-11-21T16:35:51;7.07;;;4.22;;
12968;SDS011;6549;53.128;8.182;2023-11-21T16:38:51;7.13;;;4.32;;
12968;SDS011;6549;53.128;8.182;2023-11-21T16:41:51;6.05;;;4.18;;
12968;SDS011;6549;53.128;8.182;2023-11-21T16:44:52;7.75;;;3.78;;
12968;SDS011;6549;53.128;8.182;2023-11-21T16:47:53;6.40;;;4.07;;
12968;SDS011;6549;53.128;8.182;2023-11-21T16:50:53;7.55;;;4.80;;
12968;SDS011;6549;53.128;8.182;2023-11-21T16:53:54;6.43;;;4.22;;
12968;SDS011;6549;53.128;8.182;2023-11-21T16:56:54;6.65;;;4.38;;
12968;SDS011;6549;53.128;8.182;2023-11-21T16:59:54;6.07;;;3.70;;
12968;SDS011;6549;53.128;8.182;2023-11-21T17:02:55;4.38;;;3.38;;
12968;SDS011;6549;53.128;8.182;2023-11-21T17:05:56;4.90;;;3.45;;
12968;SDS011;6549;53.128;8.182;2023-11-21T17:08:57;5.60;;;3.60;;
12968;SDS011;6549;53.128;8.182;2023-11-21T17:12:00;4.53;;;3.00;;
12968;SDS011;6549;53.128;8.182;2023-11-21T17:15:05;3.92;;;2.60;;
12968;SDS011;6549;53.128;8.182;2023-11-21T17:18:08;5.15;;;2.88;;
12968;SDS011;6549;53.128;8.182;2023-11-21T17:21:11;5.97;;;3.92;;
12968;SDS011;6549;53.128;8.182;2023-11-21T17:24:12;5.82;;;3.35;;
12968;SDS011;6549;53.128;8.182;2023-11-21T17:27:12;5.95;;;3.90;;
12968;SDS011;6549;53.128;8.182;2023-11-21T17:30:13;5.50;;;3.22;;
12968;SDS011;6549;53.128;8.182;2023-11-21T17:33:13;5.00;;;3.20;;
12968;SDS011;6549;53.128;8.182;2023-11-21T17:36:17;5.32;;;3.28;;
12968;SDS011;6549;53.128;8.182;2023-11-21T17:39:18;4.68;;;3.20;;
12968;SDS011;6549;53.128;8.182;2023-11-21T17:42:19;5.00;;;3.38;;
12968;SDS011;6549;53.128;8.182;2023-11-21T17:45:19;5.53;;;3.33;;
12968;SDS011;6549;53.128;8.182;2023-11-21T17:48:20;5.40;;;3.40;;
12968;SDS011;6549;53.128;8.182;2023-11-21T17:51:21;5.72;;;3.63;;
12968;SDS011;6549;53.128;8.182;2023-11-21T17:54:21;6.05;;;3.58;;
12968;SDS011;6549;53.128;8.182;2023-11-21T17:57:21;5.20;;;3.42;;
12968;SDS011;6549;53.128;8.182;2023-11-21T18:00:22;4.57;;;3.05;;
12968;SDS011;6549;53.128;8.182;2023-11-21T18:03:25;4.88;;;3.45;;
12968;SDS011;6549;53.128;8.182;2023-11-21T18:06:26;6.05;;;3.70;;
12968;SDS011;6549;53.128;8.182;2023-11-21T18:09:26;5.00;;;3.58;;
12968;SDS011;6549;53.128;8.182;2023-11-21T18:12:26;5.18;;;3.40;;
12968;SDS011;6549;53.128;8.182;2023-11-21T18:15:27;4.82;;;3.20;;
12968;SDS011;6549;53.128;8.182;2023-11-21T18:18:27;6.82;;;3.60;;
12968;SDS011;6549;53.128;8.182;2023-11-21T18:21:27;7.47;;;4.32;;
12968;SDS011;6549;53.128;8.182;2023-11-21T18:24:28;6.90;;;4.18;;
12968;SDS011;6549;53.128;8.182;2023-11-21T18:27:28;5.78;;;3.65;;
12968;SDS011;6549;53.128;8.182;2023-11-21T18:30:28;6.75;;;4.32;;
12968;SDS011;6549;53.128;8.182;2023-11-21T18:33:29;5.75;;;3.70;;